sensor_id;sensor_type;location;lat;lon;timestamp;temperature;humidity
21318;DHT22;10818;50.830;6.524;2023-06-10T00:03:41;19.00;99.90
21318;DHT22;10818;50.830;6.524;2023-06-10T00:08:43;18.90;99.90
21318;DHT22;10818;50.830;6.524;2023-06-10T00:13:44;18.80;99.90
21318;DHT22;10818;50.830;6.524;2023-06-10T00:18:44;18.70;99.90
21318;DHT22;10818;50.830;6.524;2023-06-10T00:23:45;18.60;99.90
21318;DHT22;10818;50.830;6.524;2023-06-10T00:28:45;18.50;99.90
21318;DHT22;10818;50.830;6.524;2023-06-10T00:33:45;18.50;99.90
21318;DHT22;10818;50.830;6.524;2023-06-10T00:38:46;18.30;99.90
21318;DHT22;10818;50.830;6.524;2023-06-10T00:43:46;18.20;99.90
21318;DHT22;10818;50.830;6.524;2023-06-10T00:48:47;18.00;99.90
21318;DHT22;10818;50.830;6.524;2023-06-10T00:53:47;17.90;99.90
21318;DHT22;10818;50.830;6.524;2023-06-10T00:58:48;17.80;99.90
21318;DHT22;10818;50.830;6.524;2023-06-10T01:03:49;17.80;99.90
21318;DHT22;10818;50.830;6.524;2023-06-10T01:08:55;17.70;99.90
21318;DHT22;10818;50.830;6.524;2023-06-10T01:13:57;17.70;99.90
21318;DHT22;10818;50.830;6.524;2023-06-10T01:18:58;17.60;99.90
21318;DHT22;10818;50.830;6.524;2023-06-10T01:24:00;17.50;99.90
21318;DHT22;10818;50.830;6.524;2023-06-10T01:29:11;17.50;99.90
21318;DHT22;10818;50.830;6.524;2023-06-10T01:34:16;17.40;99.90
21318;DHT22;10818;50.830;6.524;2023-06-10T01:39:17;17.40;99.90
21318;DHT22;10818;50.830;6.524;2023-06-10T01:44:20;17.30;99.90
21318;DHT22;10818;50.830;6.524;2023-06-10T01:49:21;17.20;99.90
21318;DHT22;10818;50.830;6.524;2023-06-10T01:54:24;17.10;99.90
21318;DHT22;10818;50.830;6.524;2023-06-10T01:59:24;17.10;99.90
21318;DHT22;10818;50.830;6.524;2023-06-10T02:04:25;17.00;99.90
21318;DHT22;10818;50.830;6.524;2023-06-10T02:09:25;17.00;99.90
21318;DHT22;10818;50.830;6.524;2023-06-10T02:14:26;16.90;99.90
21318;DHT22;10818;50.830;6.524;2023-06-10T02:19:26;16.90;99.90
21318;DHT22;10818;50.830;6.524;2023-06-10T02:24:27;16.80;99.90
21318;DHT22;10818;50.830;6.524;2023-06-10T02:29:28;16.70;99.90
21318;DHT22;10818;50.830;6.524;2023-06-10T02:34:28;16.70;99.90
21318;DHT22;10818;50.830;6.524;2023-06-10T02:39:29;16.70;99.90
21318;DHT22;10818;50.830;6.524;2023-06-10T02:44:29;16.60;99.90
21318;DHT22;10818;50.830;6.524;2023-06-10T02:49:30;16.60;99.90
21318;DHT22;10818;50.830;6.524;2023-06-10T02:54:30;16.50;99.90
21318;DHT22;10818;50.830;6.524;2023-06-10T02:59:31;16.50;99.90
21318;DHT22;10818;50.830;6.524;2023-06-10T03:04:31;16.40;99.90
21318;DHT22;10818;50.830;6.524;2023-06-10T03:09:31;16.30;99.90
21318;DHT22;10818;50.830;6.524;2023-06-10T03:14:32;16.30;99.90
21318;DHT22;10818;50.830;6.524;2023-06-10T03:19:32;16.30;99.90
21318;DHT22;10818;50.830;6.524;2023-06-10T03:24:33;16.20;99.90
21318;DHT22;10818;50.830;6.524;2023-06-10T03:29:34;16.10;99.90
21318;DHT22;10818;50.830;6.524;2023-06-10T03:34:35;16.10;99.90
21318;DHT22;10818;50.830;6.524;2023-06-10T03:39:35;16.10;99.90
21318;DHT22;10818;50.830;6.524;2023-06-10T03:44:35;16.10;99.90
21318;DHT22;10818;50.830;6.524;2023-06-10T03:49:36;16.20;99.90
21318;DHT22;10818;50.830;6.524;2023-06-10T03:54:38;16.20;99.90
21318;DHT22;10818;50.830;6.524;2023-06-10T03:59:38;16.30;99.90
21318;DHT22;10818;50.830;6.524;2023-06-10T04:04:38;16.30;99.90
21318;DHT22;10818;50.830;6.524;2023-06-10T04:09:39;16.40;99.90
21318;DHT22;10818;50.830;6.524;2023-06-10T04:14:40;16.40;99.90
21318;DHT22;10818;50.830;6.524;2023-06-10T04:19:40;16.50;99.90
21318;DHT22;10818;50.830;6.524;2023-06-10T04:24:41;16.60;99.90
21318;DHT22;10818;50.830;6.524;2023-06-10T04:29:41;16.70;99.90
21318;DHT22;10818;50.830;6.524;2023-06-10T04:34:42;16.70;99.90
21318;DHT22;10818;50.830;6.524;2023-06-10T04:39:42;17.00;99.90
21318;DHT22;10818;50.830;6.524;2023-06-10T04:44:43;17.30;99.90
21318;DHT22;10818;50.830;6.524;2023-06-10T04:49:43;17.50;99.90
21318;DHT22;10818;50.830;6.524;2023-06-10T04:54:44;17.80;99.90
21318;DHT22;10818;50.830;6.524;2023-06-10T04:59:45;17.90;99.90
21318;DHT22;10818;50.830;6.524;2023-06-10T05:04:45;18.10;99.90
21318;DHT22;10818;50.830;6.524;2023-06-10T05:09:46;18.30;99.90
21318;DHT22;10818;50.830;6.524;2023-06-10T05:14:46;18.40;99.90
21318;DHT22;10818;50.830;6.524;2023-06-10T05:19:47;18.70;99.90
21318;DHT22;10818;50.830;6.524;2023-06-10T05:24:47;19.00;99.90
21318;DHT22;10818;50.830;6.524;2023-06-10T05:29:48;19.40;99.90
21318;DHT22;10818;50.830;6.524;2023-06-10T05:34:48;19.60;99.90
21318;DHT22;10818;50.830;6.524;2023-06-10T05:39:49;20.00;99.90
21318;DHT22;10818;50.830;6.524;2023-06-10T05:44:49;20.20;99.90
21318;DHT22;10818;50.830;6.524;2023-06-10T05:49:50;20.50;99.90
21318;DHT22;10818;50.830;6.524;2023-06-10T05:54:51;20.70;99.90
21318;DHT22;10818;50.830;6.524;2023-06-10T05:59:52;21.10;99.90
21318;DHT22;10818;50.830;6.524;2023-06-10T06:04:52;21.40;99.90
21318;DHT22;10818;50.830;6.524;2023-06-10T06:09:53;21.60;99.90
21318;DHT22;10818;50.830;6.524;2023-06-10T06:14:53;22.20;99.90
21318;DHT22;10818;50.830;6.524;2023-06-10T06:19:54;22.60;99.90
21318;DHT22;10818;50.830;6.524;2023-06-10T06:24:54;23.60;99.90
21318;DHT22;10818;50.830;6.524;2023-06-10T06:29:55;28.70;99.90
21318;DHT22;10818;50.830;6.524;2023-06-10T06:34:55;33.10;94.90
21318;DHT22;10818;50.830;6.524;2023-06-10T06:39:57;36.00;86.60
21318;DHT22;10818;50.830;6.524;2023-06-10T06:44:58;37.20;74.30
21318;DHT22;10818;50.830;6.524;2023-06-10T06:49:58;39.10;63.20
21318;DHT22;10818;50.830;6.524;2023-06-10T06:54:58;41.40;57.50
21318;DHT22;10818;50.830;6.524;2023-06-10T06:59:59;43.10;51.90
21318;DHT22;10818;50.830;6.524;2023-06-10T07:04:59;44.30;49.30
21318;DHT22;10818;50.830;6.524;2023-06-10T07:10:00;44.70;45.30
21318;DHT22;10818;50.830;6.524;2023-06-10T07:15:01;43.30;44.80
21318;DHT22;10818;50.830;6.524;2023-06-10T07:20:01;45.10;43.70
21318;DHT22;10818;50.830;6.524;2023-06-10T07:25:02;46.00;41.00
21318;DHT22;10818;50.830;6.524;2023-06-10T07:30:03;46.70;41.10
21318;DHT22;10818;50.830;6.524;2023-06-10T07:35:08;47.70;38.20
21318;DHT22;10818;50.830;6.524;2023-06-10T07:40:08;48.60;37.90
21318;DHT22;10818;50.830;6.524;2023-06-10T07:45:09;45.20;38.90
21318;DHT22;10818;50.830;6.524;2023-06-10T07:50:10;48.60;36.30
21318;DHT22;10818;50.830;6.524;2023-06-10T07:55:10;46.40;37.80
21318;DHT22;10818;50.830;6.524;2023-06-10T08:00:11;49.00;36.00
21318;DHT22;10818;50.830;6.524;2023-06-10T08:05:11;48.20;35.20
21318;DHT22;10818;50.830;6.524;2023-06-10T08:10:12;49.40;35.30
21318;DHT22;10818;50.830;6.524;2023-06-10T08:15:12;49.90;32.60
21318;DHT22;10818;50.830;6.524;2023-06-10T08:20:13;49.80;32.70
21318;DHT22;10818;50.830;6.524;2023-06-10T08:25:13;45.70;35.60
21318;DHT22;10818;50.830;6.524;2023-06-10T08:30:14;41.40;40.60
21318;DHT22;10818;50.830;6.524;2023-06-10T08:35:14;38.00;44.40
21318;DHT22;10818;50.830;6.524;2023-06-10T08:40:15;36.10;46.00
21318;DHT22;10818;50.830;6.524;2023-06-10T08:45:16;34.10;49.30
21318;DHT22;10818;50.830;6.524;2023-06-10T08:50:18;32.60;50.50
21318;DHT22;10818;50.830;6.524;2023-06-10T08:55:21;32.30;52.60
21318;DHT22;10818;50.830;6.524;2023-06-10T09:00:26;31.80;54.60
21318;DHT22;10818;50.830;6.524;2023-06-10T09:05:28;32.10;54.80
21318;DHT22;10818;50.830;6.524;2023-06-10T09:10:28;31.80;55.60
21318;DHT22;10818;50.830;6.524;2023-06-10T09:15:29;31.70;56.00
21318;DHT22;10818;50.830;6.524;2023-06-10T09:20:30;31.30;55.00
21318;DHT22;10818;50.830;6.524;2023-06-10T09:25:34;31.10;55.90
21318;DHT22;10818;50.830;6.524;2023-06-10T09:30:35;31.50;55.20
21318;DHT22;10818;50.830;6.524;2023-06-10T09:35:35;31.20;55.60
21318;DHT22;10818;50.830;6.524;2023-06-10T09:40:47;31.70;55.80
21318;DHT22;10818;50.830;6.524;2023-06-10T09:45:48;31.30;56.40
21318;DHT22;10818;50.830;6.524;2023-06-10T09:50:49;31.10;56.40
21318;DHT22;10818;50.830;6.524;2023-06-10T09:55:50;31.10;56.70
21318;DHT22;10818;50.830;6.524;2023-06-10T10:00:52;31.00;58.10
21318;DHT22;10818;50.830;6.524;2023-06-10T10:05:59;31.30;56.60
21318;DHT22;10818;50.830;6.524;2023-06-10T10:11:00;30.90;58.10
21318;DHT22;10818;50.830;6.524;2023-06-10T10:16:02;31.20;57.60
21318;DHT22;10818;50.830;6.524;2023-06-10T10:21:05;31.00;57.90
21318;DHT22;10818;50.830;6.524;2023-06-10T10:26:07;31.30;56.80
21318;DHT22;10818;50.830;6.524;2023-06-10T10:31:10;31.40;56.50
21318;DHT22;10818;50.830;6.524;2023-06-10T10:36:12;31.30;57.50
21318;DHT22;10818;50.830;6.524;2023-06-10T10:41:13;31.20;58.40
21318;DHT22;10818;50.830;6.524;2023-06-10T10:46:15;31.10;57.30
21318;DHT22;10818;50.830;6.524;2023-06-10T10:51:16;31.40;56.20
21318;DHT22;10818;50.830;6.524;2023-06-10T10:56:16;31.60;55.30
21318;DHT22;10818;50.830;6.524;2023-06-10T11:01:20;31.40;53.70
21318;DHT22;10818;50.830;6.524;2023-06-10T11:06:20;31.30;54.70
21318;DHT22;10818;50.830;6.524;2023-06-10T11:11:24;31.20;54.70
21318;DHT22;10818;50.830;6.524;2023-06-10T11:16:28;31.40;55.70
21318;DHT22;10818;50.830;6.524;2023-06-10T11:21:29;31.60;52.30
21318;DHT22;10818;50.830;6.524;2023-06-10T11:26:30;31.30;53.40
21318;DHT22;10818;50.830;6.524;2023-06-10T11:31:38;31.10;53.60
21318;DHT22;10818;50.830;6.524;2023-06-10T11:36:40;30.70;55.20
21318;DHT22;10818;50.830;6.524;2023-06-10T11:41:42;31.10;54.20
21318;DHT22;10818;50.830;6.524;2023-06-10T11:46:43;31.10;51.80
21318;DHT22;10818;50.830;6.524;2023-06-10T11:51:45;31.10;53.30
21318;DHT22;10818;50.830;6.524;2023-06-10T11:56:49;31.20;51.00
21318;DHT22;10818;50.830;6.524;2023-06-10T12:01:50;31.10;52.70
21318;DHT22;10818;50.830;6.524;2023-06-10T12:06:51;31.30;52.90
21318;DHT22;10818;50.830;6.524;2023-06-10T12:11:54;31.70;52.80
21318;DHT22;10818;50.830;6.524;2023-06-10T12:16:56;31.90;52.70
21318;DHT22;10818;50.830;6.524;2023-06-10T12:21:56;32.00;52.70
21318;DHT22;10818;50.830;6.524;2023-06-10T12:26:57;32.10;52.50
21318;DHT22;10818;50.830;6.524;2023-06-10T12:31:58;32.00;52.30
21318;DHT22;10818;50.830;6.524;2023-06-10T12:36:59;32.40;51.60
21318;DHT22;10818;50.830;6.524;2023-06-10T12:42:00;32.50;49.70
21318;DHT22;10818;50.830;6.524;2023-06-10T12:47:06;32.40;51.00
21318;DHT22;10818;50.830;6.524;2023-06-10T12:52:07;32.30;50.90
21318;DHT22;10818;50.830;6.524;2023-06-10T12:57:08;32.10;52.00
21318;DHT22;10818;50.830;6.524;2023-06-10T13:02:08;31.70;52.40
21318;DHT22;10818;50.830;6.524;2023-06-10T13:07:09;31.60;52.30
21318;DHT22;10818;50.830;6.524;2023-06-10T13:12:10;31.70;53.80
21318;DHT22;10818;50.830;6.524;2023-06-10T13:17:11;31.30;52.70
21318;DHT22;10818;50.830;6.524;2023-06-10T13:22:12;30.70;52.90
21318;DHT22;10818;50.830;6.524;2023-06-10T13:27:12;30.60;53.00
21318;DHT22;10818;50.830;6.524;2023-06-10T13:32:14;30.90;53.20
21318;DHT22;10818;50.830;6.524;2023-06-10T13:37:15;31.40;51.70
21318;DHT22;10818;50.830;6.524;2023-06-10T13:42:17;31.70;50.30
21318;DHT22;10818;50.830;6.524;2023-06-10T13:47:18;31.80;50.80
21318;DHT22;10818;50.830;6.524;2023-06-10T13:52:18;32.10;49.80
21318;DHT22;10818;50.830;6.524;2023-06-10T13:57:19;32.10;49.50
21318;DHT22;10818;50.830;6.524;2023-06-10T14:02:19;32.10;49.60
21318;DHT22;10818;50.830;6.524;2023-06-10T14:07:20;32.20;50.10
21318;DHT22;10818;50.830;6.524;2023-06-10T14:12:20;32.20;49.00
21318;DHT22;10818;50.830;6.524;2023-06-10T14:17:21;32.60;51.00
21318;DHT22;10818;50.830;6.524;2023-06-10T14:22:23;32.60;45.10
21318;DHT22;10818;50.830;6.524;2023-06-10T14:27:23;32.20;46.30
21318;DHT22;10818;50.830;6.524;2023-06-10T14:32:24;32.20;47.80
21318;DHT22;10818;50.830;6.524;2023-06-10T14:37:24;31.60;48.00
21318;DHT22;10818;50.830;6.524;2023-06-10T14:42:25;31.70;46.90
21318;DHT22;10818;50.830;6.524;2023-06-10T14:47:25;31.70;49.10
21318;DHT22;10818;50.830;6.524;2023-06-10T14:52:26;31.80;49.00
21318;DHT22;10818;50.830;6.524;2023-06-10T14:57:26;31.90;48.20
21318;DHT22;10818;50.830;6.524;2023-06-10T15:02:29;32.10;47.10
21318;DHT22;10818;50.830;6.524;2023-06-10T15:07:29;32.20;45.80
21318;DHT22;10818;50.830;6.524;2023-06-10T15:12:30;32.30;46.50
21318;DHT22;10818;50.830;6.524;2023-06-10T15:17:30;32.30;46.20
21318;DHT22;10818;50.830;6.524;2023-06-10T15:22:31;31.90;47.40
21318;DHT22;10818;50.830;6.524;2023-06-10T15:27:31;31.80;46.50
21318;DHT22;10818;50.830;6.524;2023-06-10T15:32:32;31.80;47.50
21318;DHT22;10818;50.830;6.524;2023-06-10T15:37:32;31.90;46.10
21318;DHT22;10818;50.830;6.524;2023-06-10T15:42:33;31.90;48.10
21318;DHT22;10818;50.830;6.524;2023-06-10T15:47:33;31.70;48.20
21318;DHT22;10818;50.830;6.524;2023-06-10T15:52:33;32.20;47.00
21318;DHT22;10818;50.830;6.524;2023-06-10T15:57:34;32.50;47.00
21318;DHT22;10818;50.830;6.524;2023-06-10T16:02:34;32.50;46.40
21318;DHT22;10818;50.830;6.524;2023-06-10T16:07:35;32.10;45.90
21318;DHT22;10818;50.830;6.524;2023-06-10T16:12:35;31.50;48.90
21318;DHT22;10818;50.830;6.524;2023-06-10T16:17:36;31.10;50.70
21318;DHT22;10818;50.830;6.524;2023-06-10T16:22:38;31.00;51.50
21318;DHT22;10818;50.830;6.524;2023-06-10T16:27:38;30.90;52.00
21318;DHT22;10818;50.830;6.524;2023-06-10T16:32:38;30.80;51.60
21318;DHT22;10818;50.830;6.524;2023-06-10T16:37:39;31.00;52.40
21318;DHT22;10818;50.830;6.524;2023-06-10T16:42:40;31.00;51.70
21318;DHT22;10818;50.830;6.524;2023-06-10T16:47:40;31.10;51.00
21318;DHT22;10818;50.830;6.524;2023-06-10T16:52:40;31.10;49.80
21318;DHT22;10818;50.830;6.524;2023-06-10T16:57:41;31.30;50.50
21318;DHT22;10818;50.830;6.524;2023-06-10T17:02:42;31.40;49.80
21318;DHT22;10818;50.830;6.524;2023-06-10T17:07:42;31.70;48.30
21318;DHT22;10818;50.830;6.524;2023-06-10T17:12:42;31.80;52.10
21318;DHT22;10818;50.830;6.524;2023-06-10T17:17:43;31.60;48.90
21318;DHT22;10818;50.830;6.524;2023-06-10T17:22:43;31.30;51.00
21318;DHT22;10818;50.830;6.524;2023-06-10T17:27:44;31.30;51.00
21318;DHT22;10818;50.830;6.524;2023-06-10T17:32:44;31.00;51.90
21318;DHT22;10818;50.830;6.524;2023-06-10T17:37:45;30.80;51.60
21318;DHT22;10818;50.830;6.524;2023-06-10T17:42:45;30.30;53.00
21318;DHT22;10818;50.830;6.524;2023-06-10T17:47:46;30.20;52.80
21318;DHT22;10818;50.830;6.524;2023-06-10T17:52:46;30.00;53.90
21318;DHT22;10818;50.830;6.524;2023-06-10T17:57:47;29.90;54.00
21318;DHT22;10818;50.830;6.524;2023-06-10T18:02:47;29.80;54.60
21318;DHT22;10818;50.830;6.524;2023-06-10T18:07:48;29.80;54.20
21318;DHT22;10818;50.830;6.524;2023-06-10T18:12:48;29.60;53.90
21318;DHT22;10818;50.830;6.524;2023-06-10T18:17:48;29.30;55.10
21318;DHT22;10818;50.830;6.524;2023-06-10T18:22:49;29.20;56.30
21318;DHT22;10818;50.830;6.524;2023-06-10T18:27:49;29.10;57.20
21318;DHT22;10818;50.830;6.524;2023-06-10T18:32:50;29.00;58.50
21318;DHT22;10818;50.830;6.524;2023-06-10T18:37:50;29.00;57.40
21318;DHT22;10818;50.830;6.524;2023-06-10T18:42:51;28.80;58.00
21318;DHT22;10818;50.830;6.524;2023-06-10T18:47:51;28.60;58.30
21318;DHT22;10818;50.830;6.524;2023-06-10T18:52:52;28.40;59.70
21318;DHT22;10818;50.830;6.524;2023-06-10T18:57:52;28.20;62.10
21318;DHT22;10818;50.830;6.524;2023-06-10T19:02:53;28.20;60.20
21318;DHT22;10818;50.830;6.524;2023-06-10T19:07:53;28.00;60.60
21318;DHT22;10818;50.830;6.524;2023-06-10T19:12:54;27.80;62.00
21318;DHT22;10818;50.830;6.524;2023-06-10T19:17:54;27.50;62.20
21318;DHT22;10818;50.830;6.524;2023-06-10T19:22:55;27.30;62.60
21318;DHT22;10818;50.830;6.524;2023-06-10T19:27:55;26.90;64.30
21318;DHT22;10818;50.830;6.524;2023-06-10T19:32:56;26.70;66.60
21318;DHT22;10818;50.830;6.524;2023-06-10T19:37:56;26.50;65.70
21318;DHT22;10818;50.830;6.524;2023-06-10T19:42:57;26.30;65.20
21318;DHT22;10818;50.830;6.524;2023-06-10T19:47:58;26.10;65.30
21318;DHT22;10818;50.830;6.524;2023-06-10T19:52:58;25.90;66.60
21318;DHT22;10818;50.830;6.524;2023-06-10T19:57:59;25.70;67.10
21318;DHT22;10818;50.830;6.524;2023-06-10T20:02:59;25.60;67.40
21318;DHT22;10818;50.830;6.524;2023-06-10T20:08:00;25.40;67.20
21318;DHT22;10818;50.830;6.524;2023-06-10T20:13:00;25.20;68.30
21318;DHT22;10818;50.830;6.524;2023-06-10T20:18:01;25.00;69.40
21318;DHT22;10818;50.830;6.524;2023-06-10T20:23:01;24.90;71.10
21318;DHT22;10818;50.830;6.524;2023-06-10T20:28:02;24.70;71.20
21318;DHT22;10818;50.830;6.524;2023-06-10T20:33:02;24.50;73.00
21318;DHT22;10818;50.830;6.524;2023-06-10T20:38:03;24.40;74.10
21318;DHT22;10818;50.830;6.524;2023-06-10T20:43:03;24.20;74.20
21318;DHT22;10818;50.830;6.524;2023-06-10T20:48:03;24.10;75.40
21318;DHT22;10818;50.830;6.524;2023-06-10T20:53:04;24.00;76.30
21318;DHT22;10818;50.830;6.524;2023-06-10T20:58:04;24.00;76.70
21318;DHT22;10818;50.830;6.524;2023-06-10T21:03:05;23.80;77.70
21318;DHT22;10818;50.830;6.524;2023-06-10T21:08:05;23.70;78.70
21318;DHT22;10818;50.830;6.524;2023-06-10T21:13:08;23.80;78.40
21318;DHT22;10818;50.830;6.524;2023-06-10T21:18:08;23.70;78.90
21318;DHT22;10818;50.830;6.524;2023-06-10T21:23:08;23.60;80.00
21318;DHT22;10818;50.830;6.524;2023-06-10T21:28:09;23.40;82.00
21318;DHT22;10818;50.830;6.524;2023-06-10T21:33:09;23.20;84.10
21318;DHT22;10818;50.830;6.524;2023-06-10T21:38:10;23.00;85.70
21318;DHT22;10818;50.830;6.524;2023-06-10T21:43:10;22.90;87.10
21318;DHT22;10818;50.830;6.524;2023-06-10T21:48:11;22.90;88.90
21318;DHT22;10818;50.830;6.524;2023-06-10T21:53:11;22.70;90.20
21318;DHT22;10818;50.830;6.524;2023-06-10T21:58:12;22.80;90.00
21318;DHT22;10818;50.830;6.524;2023-06-10T22:03:12;22.50;91.30
21318;DHT22;10818;50.830;6.524;2023-06-10T22:08:13;22.50;91.30
21318;DHT22;10818;50.830;6.524;2023-06-10T22:13:13;22.50;92.00
21318;DHT22;10818;50.830;6.524;2023-06-10T22:18:16;22.40;92.50
21318;DHT22;10818;50.830;6.524;2023-06-10T22:23:20;22.30;93.00
21318;DHT22;10818;50.830;6.524;2023-06-10T22:28:20;22.30;93.40
21318;DHT22;10818;50.830;6.524;2023-06-10T22:33:21;22.10;94.50
21318;DHT22;10818;50.830;6.524;2023-06-10T22:38:21;22.10;94.50
21318;DHT22;10818;50.830;6.524;2023-06-10T22:43:22;21.90;95.10
21318;DHT22;10818;50.830;6.524;2023-06-10T22:48:22;21.80;97.20
21318;DHT22;10818;50.830;6.524;2023-06-10T22:53:22;21.50;99.90
21318;DHT22;10818;50.830;6.524;2023-06-10T22:58:23;21.40;99.90
21318;DHT22;10818;50.830;6.524;2023-06-10T23:03:23;21.20;99.90
21318;DHT22;10818;50.830;6.524;2023-06-10T23:08:24;21.10;99.90
21318;DHT22;10818;50.830;6.524;2023-06-10T23:13:24;20.90;99.90
21318;DHT22;10818;50.830;6.524;2023-06-10T23:18:25;20.90;99.90
21318;DHT22;10818;50.830;6.524;2023-06-10T23:23:25;20.70;99.90
21318;DHT22;10818;50.830;6.524;2023-06-10T23:28:33;20.50;99.90
21318;DHT22;10818;50.830;6.524;2023-06-10T23:33:34;20.40;99.90
21318;DHT22;10818;50.830;6.524;2023-06-10T23:38:34;20.40;99.90
21318;DHT22;10818;50.830;6.524;2023-06-10T23:43:35;20.40;99.90
21318;DHT22;10818;50.830;6.524;2023-06-10T23:48:36;20.40;99.90
21318;DHT22;10818;50.830;6.524;2023-06-10T23:53:37;20.40;99.90
21318;DHT22;10818;50.830;6.524;2023-06-10T23:58:37;20.50;99.90
